sensor_id;sensor_type;location;lat;lon;timestamp;P1;durP1;ratioP1;P2;durP2;ratioP2
13057;SDS011;6595;49.578;11.012;2024-01-10T00:00:24;13.5;;;5.5;;
13057;SDS011;6595;49.578;11.012;2024-01-10T00:02:23;13.5;;;5.5;;
13057;SDS011;6595;49.578;11.012;2024-01-10T00:04:23;10.4;;;5.1;;
13057;SDS011;6595;49.578;11.012;2024-01-10T00:06:23;9.4;;;5.0;;
13057;SDS011;6595;49.578;11.012;2024-01-10T00:08:24;12.4;;;5.5;;
13057;SDS011;6595;49.578;11.012;2024-01-10T00:10:24;13.0;;;5.6;;
13057;SDS011;6595;49.578;11.012;2024-01-10T00:12:23;13.0;;;5.6;;
13057;SDS011;6595;49.578;11.012;2024-01-10T00:14:23;13.2;;;5.7;;
13057;SDS011;6595;49.578;11.012;2024-01-10T00:16:23;13.1;;;5.2;;
13057;SDS011;6595;49.578;11.012;2024-01-10T00:18:23;13.4;;;5.3;;
13057;SDS011;6595;49.578;11.012;2024-01-10T00:20:23;13.4;;;5.3;;
13057;SDS011;6595;49.578;11.012;2024-01-10T00:22:24;13.3;;;5.6;;
13057;SDS011;6595;49.578;11.012;2024-01-10T00:24:23;12.5;;;5.7;;
13057;SDS011;6595;49.578;11.012;2024-01-10T00:26:23;10.9;;;5.1;;
13057;SDS011;6595;49.578;11.012;2024-01-10T00:28:23;11.5;;;5.1;;
13057;SDS011;6595;49.578;11.012;2024-01-10T00:30:24;11.5;;;5.1;;
13057;SDS011;6595;49.578;11.012;2024-01-10T00:32:23;12.3;;;5.2;;
13057;SDS011;6595;49.578;11.012;2024-01-10T00:34:23;12.2;;;5.5;;
13057;SDS011;6595;49.578;11.012;2024-01-10T00:36:23;13.8;;;5.3;;
13057;SDS011;6595;49.578;11.012;2024-01-10T00:38:24;10.6;;;5.3;;
13057;SDS011;6595;49.578;11.012;2024-01-10T00:40:23;10.6;;;5.3;;
13057;SDS011;6595;49.578;11.012;2024-01-10T00:42:23;11.7;;;5.4;;
13057;SDS011;6595;49.578;11.012;2024-01-10T00:44:23;12.4;;;5.2;;
13057;SDS011;6595;49.578;11.012;2024-01-10T00:46:23;11.4;;;5.7;;
13057;SDS011;6595;49.578;11.012;2024-01-10T00:48:24;13.9;;;5.8;;
13057;SDS011;6595;49.578;11.012;2024-01-10T00:50:24;13.9;;;5.8;;
13057;SDS011;6595;49.578;11.012;2024-01-10T00:52:24;12.4;;;6.0;;
13057;SDS011;6595;49.578;11.012;2024-01-10T00:54:23;12.7;;;5.4;;
13057;SDS011;6595;49.578;11.012;2024-01-10T00:56:23;9.8;;;4.9;;
13057;SDS011;6595;49.578;11.012;2024-01-10T00:58:23;10.5;;;5.3;;
13057;SDS011;6595;49.578;11.012;2024-01-10T01:00:23;10.5;;;5.3;;
13057;SDS011;6595;49.578;11.012;2024-01-10T01:02:24;13.2;;;5.5;;
13057;SDS011;6595;49.578;11.012;2024-01-10T01:04:23;10.4;;;5.3;;
13057;SDS011;6595;49.578;11.012;2024-01-10T01:06:23;15.0;;;6.1;;
13057;SDS011;6595;49.578;11.012;2024-01-10T01:08:23;12.4;;;5.7;;
13057;SDS011;6595;49.578;11.012;2024-01-10T01:10:23;12.4;;;5.7;;
13057;SDS011;6595;49.578;11.012;2024-01-10T01:12:24;15.2;;;6.1;;
13057;SDS011;6595;49.578;11.012;2024-01-10T01:14:23;12.5;;;5.9;;
13057;SDS011;6595;49.578;11.012;2024-01-10T01:16:23;12.6;;;5.5;;
13057;SDS011;6595;49.578;11.012;2024-01-10T01:18:23;12.1;;;5.4;;
13057;SDS011;6595;49.578;11.012;2024-01-10T01:20:24;12.1;;;5.4;;
13057;SDS011;6595;49.578;11.012;2024-01-10T01:22:24;14.0;;;6.0;;
13057;SDS011;6595;49.578;11.012;2024-01-10T01:24:23;12.2;;;5.6;;
13057;SDS011;6595;49.578;11.012;2024-01-10T01:26:23;12.2;;;5.7;;
13057;SDS011;6595;49.578;11.012;2024-01-10T01:28:24;12.2;;;5.7;;
13057;SDS011;6595;49.578;11.012;2024-01-10T01:30:24;14.1;;;6.0;;
13057;SDS011;6595;49.578;11.012;2024-01-10T01:32:23;13.9;;;5.9;;
13057;SDS011;6595;49.578;11.012;2024-01-10T01:34:23;12.1;;;5.9;;
13057;SDS011;6595;49.578;11.012;2024-01-10T01:36:23;12.1;;;5.9;;
13057;SDS011;6595;49.578;11.012;2024-01-10T01:38:24;13.8;;;6.2;;
13057;SDS011;6595;49.578;11.012;2024-01-10T01:40:23;13.5;;;6.0;;
13057;SDS011;6595;49.578;11.012;2024-01-10T01:42:23;13.5;;;5.9;;
13057;SDS011;6595;49.578;11.012;2024-01-10T01:44:23;11.4;;;5.8;;
13057;SDS011;6595;49.578;11.012;2024-01-10T01:46:23;11.4;;;5.8;;
13057;SDS011;6595;49.578;11.012;2024-01-10T01:48:24;13.0;;;5.9;;
13057;SDS011;6595;49.578;11.012;2024-01-10T01:50:24;14.3;;;6.0;;
13057;SDS011;6595;49.578;11.012;2024-01-10T01:52:24;14.3;;;5.9;;
13057;SDS011;6595;49.578;11.012;2024-01-10T01:54:23;16.4;;;6.4;;
13057;SDS011;6595;49.578;11.012;2024-01-10T01:56:23;16.4;;;6.4;;
13057;SDS011;6595;49.578;11.012;2024-01-10T01:58:24;12.8;;;6.3;;
13057;SDS011;6595;49.578;11.012;2024-01-10T02:00:23;10.8;;;5.7;;
13057;SDS011;6595;49.578;11.012;2024-01-10T02:02:23;12.2;;;5.3;;
13057;SDS011;6595;49.578;11.012;2024-01-10T02:04:23;14.2;;;6.0;;
13057;SDS011;6595;49.578;11.012;2024-01-10T02:06:23;14.2;;;6.0;;
13057;SDS011;6595;49.578;11.012;2024-01-10T02:08:24;11.8;;;5.7;;
13057;SDS011;6595;49.578;11.012;2024-01-10T02:10:24;10.4;;;5.5;;
13057;SDS011;6595;49.578;11.012;2024-01-10T02:12:24;10.4;;;5.5;;
13057;SDS011;6595;49.578;11.012;2024-01-10T02:14:23;12.4;;;5.7;;
13057;SDS011;6595;49.578;11.012;2024-01-10T02:16:23;12.4;;;5.7;;
13057;SDS011;6595;49.578;11.012;2024-01-10T02:18:24;15.4;;;5.6;;
13057;SDS011;6595;49.578;11.012;2024-01-10T02:20:24;14.1;;;5.6;;
13057;SDS011;6595;49.578;11.012;2024-01-10T02:22:23;14.1;;;5.6;;
13057;SDS011;6595;49.578;11.012;2024-01-10T02:24:23;13.9;;;5.6;;
13057;SDS011;6595;49.578;11.012;2024-01-10T02:26:23;13.9;;;5.6;;
13057;SDS011;6595;49.578;11.012;2024-01-10T02:28:23;13.5;;;5.3;;
13057;SDS011;6595;49.578;11.012;2024-01-10T02:30:24;9.0;;;4.8;;
13057;SDS011;6595;49.578;11.012;2024-01-10T02:32:23;9.5;;;5.1;;
13057;SDS011;6595;49.578;11.012;2024-01-10T02:34:23;10.6;;;5.1;;
13057;SDS011;6595;49.578;11.012;2024-01-10T02:36:23;10.6;;;5.1;;
13057;SDS011;6595;49.578;11.012;2024-01-10T02:38:24;12.3;;;5.3;;
13057;SDS011;6595;49.578;11.012;2024-01-10T02:40:24;12.9;;;5.7;;
13057;SDS011;6595;49.578;11.012;2024-01-10T02:42:23;10.1;;;4.7;;
13057;SDS011;6595;49.578;11.012;2024-01-10T02:44:23;11.4;;;5.4;;
13057;SDS011;6595;49.578;11.012;2024-01-10T02:46:23;11.4;;;5.4;;
13057;SDS011;6595;49.578;11.012;2024-01-10T02:48:23;11.5;;;5.2;;
13057;SDS011;6595;49.578;11.012;2024-01-10T02:50:24;10.2;;;4.9;;
13057;SDS011;6595;49.578;11.012;2024-01-10T02:52:23;12.3;;;5.6;;
13057;SDS011;6595;49.578;11.012;2024-01-10T02:54:23;12.3;;;5.6;;
13057;SDS011;6595;49.578;11.012;2024-01-10T02:56:23;11.7;;;5.4;;
13057;SDS011;6595;49.578;11.012;2024-01-10T02:58:24;12.1;;;5.3;;
13057;SDS011;6595;49.578;11.012;2024-01-10T03:00:24;11.6;;;5.7;;
13057;SDS011;6595;49.578;11.012;2024-01-10T03:02:23;11.6;;;5.7;;
13057;SDS011;6595;49.578;11.012;2024-01-10T03:04:23;11.7;;;5.6;;
13057;SDS011;6595;49.578;11.012;2024-01-10T03:06:23;14.2;;;5.2;;
13057;SDS011;6595;49.578;11.012;2024-01-10T03:08:23;10.1;;;5.2;;
13057;SDS011;6595;49.578;11.012;2024-01-10T03:10:24;11.3;;;5.0;;
13057;SDS011;6595;49.578;11.012;2024-01-10T03:12:23;12.9;;;5.4;;
13057;SDS011;6595;49.578;11.012;2024-01-10T03:14:23;12.9;;;5.4;;
13057;SDS011;6595;49.578;11.012;2024-01-10T03:16:23;13.8;;;5.4;;
13057;SDS011;6595;49.578;11.012;2024-01-10T03:18:24;12.0;;;5.3;;
13057;SDS011;6595;49.578;11.012;2024-01-10T03:20:24;12.0;;;5.3;;
13057;SDS011;6595;49.578;11.012;2024-01-10T03:22:24;11.1;;;5.1;;
13057;SDS011;6595;49.578;11.012;2024-01-10T03:24:23;11.1;;;5.1;;
13057;SDS011;6595;49.578;11.012;2024-01-10T03:26:23;13.6;;;5.3;;
13057;SDS011;6595;49.578;11.012;2024-01-10T03:28:23;12.3;;;5.9;;
13057;SDS011;6595;49.578;11.012;2024-01-10T03:30:23;13.6;;;5.7;;
13057;SDS011;6595;49.578;11.012;2024-01-10T03:32:24;10.3;;;4.8;;
13057;SDS011;6595;49.578;11.012;2024-01-10T03:34:24;10.3;;;4.8;;
13057;SDS011;6595;49.578;11.012;2024-01-10T03:36:24;10.2;;;4.9;;
13057;SDS011;6595;49.578;11.012;2024-01-10T03:38:23;11.8;;;4.9;;
13057;SDS011;6595;49.578;11.012;2024-01-10T03:40:23;12.4;;;5.7;;
13057;SDS011;6595;49.578;11.012;2024-01-10T03:42:23;12.4;;;5.7;;
13057;SDS011;6595;49.578;11.012;2024-01-10T03:44:23;13.6;;;5.8;;
13057;SDS011;6595;49.578;11.012;2024-01-10T03:46:24;13.1;;;5.2;;
13057;SDS011;6595;49.578;11.012;2024-01-10T03:48:24;12.2;;;5.5;;
13057;SDS011;6595;49.578;11.012;2024-01-10T03:50:23;12.1;;;5.4;;
13057;SDS011;6595;49.578;11.012;2024-01-10T03:52:23;12.1;;;5.4;;
13057;SDS011;6595;49.578;11.012;2024-01-10T03:54:23;11.9;;;4.8;;
13057;SDS011;6595;49.578;11.012;2024-01-10T03:56:23;12.6;;;5.3;;
13057;SDS011;6595;49.578;11.012;2024-01-10T03:58:23;12.4;;;5.2;;
13057;SDS011;6595;49.578;11.012;2024-01-10T04:00:23;12.4;;;5.2;;
13057;SDS011;6595;49.578;11.012;2024-01-10T04:02:23;11.8;;;5.3;;
13057;SDS011;6595;49.578;11.012;2024-01-10T04:04:23;13.4;;;5.8;;
13057;SDS011;6595;49.578;11.012;2024-01-10T04:06:23;12.3;;;5.4;;
13057;SDS011;6595;49.578;11.012;2024-01-10T04:08:23;13.4;;;5.7;;
13057;SDS011;6595;49.578;11.012;2024-01-10T04:10:24;13.4;;;5.7;;
13057;SDS011;6595;49.578;11.012;2024-01-10T04:12:23;13.4;;;5.5;;
13057;SDS011;6595;49.578;11.012;2024-01-10T04:14:23;11.4;;;5.4;;
13057;SDS011;6595;49.578;11.012;2024-01-10T04:16:23;12.4;;;5.5;;
13057;SDS011;6595;49.578;11.012;2024-01-10T04:18:23;12.0;;;5.2;;
13057;SDS011;6595;49.578;11.012;2024-01-10T04:20:23;12.0;;;5.2;;
13057;SDS011;6595;49.578;11.012;2024-01-10T04:22:23;10.5;;;5.3;;
13057;SDS011;6595;49.578;11.012;2024-01-10T04:24:24;16.4;;;5.8;;
13057;SDS011;6595;49.578;11.012;2024-01-10T04:26:23;9.6;;;5.3;;
13057;SDS011;6595;49.578;11.012;2024-01-10T04:28:23;9.6;;;5.3;;
13057;SDS011;6595;49.578;11.012;2024-01-10T04:30:23;13.2;;;5.6;;
13057;SDS011;6595;49.578;11.012;2024-01-10T04:32:23;12.8;;;5.1;;
13057;SDS011;6595;49.578;11.012;2024-01-10T04:34:24;13.5;;;5.2;;
13057;SDS011;6595;49.578;11.012;2024-01-10T04:36:23;12.3;;;5.6;;
13057;SDS011;6595;49.578;11.012;2024-01-10T04:38:23;12.3;;;5.6;;
13057;SDS011;6595;49.578;11.012;2024-01-10T04:40:23;11.9;;;5.3;;
13057;SDS011;6595;49.578;11.012;2024-01-10T04:42:24;13.1;;;5.9;;
13057;SDS011;6595;49.578;11.012;2024-01-10T04:44:24;11.7;;;5.3;;
13057;SDS011;6595;49.578;11.012;2024-01-10T04:46:23;9.3;;;5.2;;
13057;SDS011;6595;49.578;11.012;2024-01-10T04:48:23;10.9;;;5.6;;
13057;SDS011;6595;49.578;11.012;2024-01-10T04:50:23;10.9;;;5.6;;
13057;SDS011;6595;49.578;11.012;2024-01-10T04:52:23;12.3;;;5.3;;
13057;SDS011;6595;49.578;11.012;2024-01-10T04:54:24;13.1;;;5.7;;
13057;SDS011;6595;49.578;11.012;2024-01-10T04:56:23;12.1;;;5.5;;
13057;SDS011;6595;49.578;11.012;2024-01-10T04:58:23;12.1;;;5.5;;
13057;SDS011;6595;49.578;11.012;2024-01-10T05:00:23;12.4;;;5.4;;
13057;SDS011;6595;49.578;11.012;2024-01-10T05:02:24;12.9;;;5.3;;
13057;SDS011;6595;49.578;11.012;2024-01-10T05:04:23;13.8;;;5.4;;
13057;SDS011;6595;49.578;11.012;2024-01-10T05:06:24;12.3;;;5.4;;
13057;SDS011;6595;49.578;11.012;2024-01-10T05:08:23;12.5;;;5.5;;
13057;SDS011;6595;49.578;11.012;2024-01-10T05:10:23;12.5;;;5.5;;
13057;SDS011;6595;49.578;11.012;2024-01-10T05:12:23;15.1;;;6.2;;
13057;SDS011;6595;49.578;11.012;2024-01-10T05:14:24;15.1;;;6.2;;
13057;SDS011;6595;49.578;11.012;2024-01-10T05:16:23;10.5;;;5.5;;
13057;SDS011;6595;49.578;11.012;2024-01-10T05:18:23;11.0;;;5.6;;
13057;SDS011;6595;49.578;11.012;2024-01-10T05:20:23;11.0;;;5.6;;
13057;SDS011;6595;49.578;11.012;2024-01-10T05:22:23;11.5;;;5.6;;
13057;SDS011;6595;49.578;11.012;2024-01-10T05:24:23;12.4;;;5.6;;
13057;SDS011;6595;49.578;11.012;2024-01-10T05:26:24;13.6;;;5.5;;
13057;SDS011;6595;49.578;11.012;2024-01-10T05:28:24;13.6;;;5.5;;
13057;SDS011;6595;49.578;11.012;2024-01-10T05:30:23;12.9;;;6.0;;
13057;SDS011;6595;49.578;11.012;2024-01-10T05:32:23;10.8;;;5.6;;
13057;SDS011;6595;49.578;11.012;2024-01-10T05:34:23;15.8;;;5.7;;
13057;SDS011;6595;49.578;11.012;2024-01-10T05:36:23;10.8;;;5.3;;
13057;SDS011;6595;49.578;11.012;2024-01-10T05:38:24;10.8;;;5.3;;
13057;SDS011;6595;49.578;11.012;2024-01-10T05:40:23;13.1;;;5.9;;
13057;SDS011;6595;49.578;11.012;2024-01-10T05:42:23;13.6;;;5.6;;
13057;SDS011;6595;49.578;11.012;2024-01-10T05:44:23;14.2;;;6.0;;
13057;SDS011;6595;49.578;11.012;2024-01-10T05:46:24;14.2;;;6.0;;
13057;SDS011;6595;49.578;11.012;2024-01-10T05:48:23;10.9;;;5.5;;
13057;SDS011;6595;49.578;11.012;2024-01-10T05:50:23;12.8;;;5.5;;
13057;SDS011;6595;49.578;11.012;2024-01-10T05:52:23;12.1;;;5.9;;
13057;SDS011;6595;49.578;11.012;2024-01-10T05:54:24;13.0;;;5.8;;
13057;SDS011;6595;49.578;11.012;2024-01-10T05:56:23;13.0;;;5.8;;
13057;SDS011;6595;49.578;11.012;2024-01-10T05:58:23;12.4;;;5.8;;
13057;SDS011;6595;49.578;11.012;2024-01-10T06:00:23;11.7;;;5.6;;
13057;SDS011;6595;49.578;11.012;2024-01-10T06:02:24;10.3;;;5.5;;
13057;SDS011;6595;49.578;11.012;2024-01-10T06:04:23;14.3;;;6.1;;
13057;SDS011;6595;49.578;11.012;2024-01-10T06:06:23;13.7;;;6.2;;
13057;SDS011;6595;49.578;11.012;2024-01-10T06:08:23;13.7;;;6.2;;
13057;SDS011;6595;49.578;11.012;2024-01-10T06:10:24;12.3;;;5.9;;
13057;SDS011;6595;49.578;11.012;2024-01-10T06:12:23;13.0;;;5.7;;
13057;SDS011;6595;49.578;11.012;2024-01-10T06:14:23;17.2;;;6.7;;
13057;SDS011;6595;49.578;11.012;2024-01-10T06:16:24;14.1;;;6.0;;
13057;SDS011;6595;49.578;11.012;2024-01-10T06:18:23;14.1;;;6.0;;
13057;SDS011;6595;49.578;11.012;2024-01-10T06:20:23;13.2;;;6.1;;
13057;SDS011;6595;49.578;11.012;2024-01-10T06:22:24;14.4;;;6.4;;
13057;SDS011;6595;49.578;11.012;2024-01-10T06:24:24;13.4;;;6.1;;
13057;SDS011;6595;49.578;11.012;2024-01-10T06:26:23;13.4;;;6.1;;
13057;SDS011;6595;49.578;11.012;2024-01-10T06:28:23;11.7;;;5.7;;
13057;SDS011;6595;49.578;11.012;2024-01-10T06:30:23;16.1;;;6.8;;
13057;SDS011;6595;49.578;11.012;2024-01-10T06:32:24;15.9;;;6.0;;
13057;SDS011;6595;49.578;11.012;2024-01-10T06:34:23;19.7;;;6.5;;
13057;SDS011;6595;49.578;11.012;2024-01-10T06:36:23;19.7;;;6.5;;
13057;SDS011;6595;49.578;11.012;2024-01-10T06:38:23;17.2;;;6.7;;
13057;SDS011;6595;49.578;11.012;2024-01-10T06:40:23;21.0;;;6.4;;
13057;SDS011;6595;49.578;11.012;2024-01-10T06:42:24;19.9;;;6.8;;
13057;SDS011;6595;49.578;11.012;2024-01-10T06:44:23;15.7;;;6.6;;
13057;SDS011;6595;49.578;11.012;2024-01-10T06:46:23;15.7;;;6.6;;
13057;SDS011;6595;49.578;11.012;2024-01-10T06:48:23;16.0;;;6.5;;
13057;SDS011;6595;49.578;11.012;2024-01-10T06:50:24;15.3;;;6.1;;
13057;SDS011;6595;49.578;11.012;2024-01-10T06:52:24;13.9;;;5.8;;
13057;SDS011;6595;49.578;11.012;2024-01-10T06:54:23;13.9;;;5.8;;
13057;SDS011;6595;49.578;11.012;2024-01-10T06:56:23;14.9;;;6.2;;
13057;SDS011;6595;49.578;11.012;2024-01-10T06:58:24;17.1;;;6.4;;
13057;SDS011;6595;49.578;11.012;2024-01-10T07:00:23;14.8;;;6.2;;
13057;SDS011;6595;49.578;11.012;2024-01-10T07:02:23;14.2;;;6.0;;
13057;SDS011;6595;49.578;11.012;2024-01-10T07:04:23;14.2;;;6.0;;
13057;SDS011;6595;49.578;11.012;2024-01-10T07:06:23;14.8;;;6.6;;
13057;SDS011;6595;49.578;11.012;2024-01-10T07:08:23;18.5;;;6.6;;
13057;SDS011;6595;49.578;11.012;2024-01-10T07:10:24;18.1;;;6.7;;
13057;SDS011;6595;49.578;11.012;2024-01-10T07:12:24;15.0;;;6.6;;
13057;SDS011;6595;49.578;11.012;2024-01-10T07:14:24;15.0;;;6.6;;
13057;SDS011;6595;49.578;11.012;2024-01-10T07:16:23;16.4;;;6.9;;
13057;SDS011;6595;49.578;11.012;2024-01-10T07:18:23;18.2;;;6.8;;
13057;SDS011;6595;49.578;11.012;2024-01-10T07:20:23;18.7;;;7.0;;
13057;SDS011;6595;49.578;11.012;2024-01-10T07:22:23;18.7;;;7.0;;
13057;SDS011;6595;49.578;11.012;2024-01-10T07:24:23;22.1;;;7.5;;
13057;SDS011;6595;49.578;11.012;2024-01-10T07:26:24;19.4;;;7.7;;
13057;SDS011;6595;49.578;11.012;2024-01-10T07:28:23;22.3;;;7.6;;
13057;SDS011;6595;49.578;11.012;2024-01-10T07:30:23;22.8;;;7.8;;
13057;SDS011;6595;49.578;11.012;2024-01-10T07:32:23;22.8;;;7.8;;
13057;SDS011;6595;49.578;11.012;2024-01-10T07:34:23;37.7;;;7.8;;
13057;SDS011;6595;49.578;11.012;2024-01-10T07:36:23;21.7;;;7.4;;
13057;SDS011;6595;49.578;11.012;2024-01-10T07:38:23;21.5;;;7.3;;
13057;SDS011;6595;49.578;11.012;2024-01-10T07:40:23;26.0;;;7.4;;
13057;SDS011;6595;49.578;11.012;2024-01-10T07:42:24;26.0;;;7.4;;
13057;SDS011;6595;49.578;11.012;2024-01-10T07:44:23;26.1;;;7.4;;
13057;SDS011;6595;49.578;11.012;2024-01-10T07:46:24;24.3;;;6.9;;
13057;SDS011;6595;49.578;11.012;2024-01-10T07:48:23;25.5;;;7.2;;
13057;SDS011;6595;49.578;11.012;2024-01-10T07:50:23;17.1;;;6.7;;
13057;SDS011;6595;49.578;11.012;2024-01-10T07:52:23;17.1;;;6.7;;
13057;SDS011;6595;49.578;11.012;2024-01-10T07:54:23;20.5;;;7.8;;
13057;SDS011;6595;49.578;11.012;2024-01-10T07:56:24;21.7;;;7.4;;
13057;SDS011;6595;49.578;11.012;2024-01-10T07:58:24;20.6;;;7.5;;
13057;SDS011;6595;49.578;11.012;2024-01-10T08:00:24;28.8;;;7.9;;
13057;SDS011;6595;49.578;11.012;2024-01-10T08:02:23;28.8;;;7.9;;
13057;SDS011;6595;49.578;11.012;2024-01-10T08:04:23;26.2;;;8.2;;
13057;SDS011;6595;49.578;11.012;2024-01-10T08:06:23;30.1;;;7.9;;
13057;SDS011;6595;49.578;11.012;2024-01-10T08:08:23;20.5;;;7.8;;
13057;SDS011;6595;49.578;11.012;2024-01-10T08:10:23;24.4;;;7.5;;
13057;SDS011;6595;49.578;11.012;2024-01-10T08:12:24;24.4;;;7.5;;
13057;SDS011;6595;49.578;11.012;2024-01-10T08:14:23;26.2;;;7.8;;
13057;SDS011;6595;49.578;11.012;2024-01-10T08:16:23;22.8;;;7.7;;
13057;SDS011;6595;49.578;11.012;2024-01-10T08:18:23;19.2;;;7.6;;
13057;SDS011;6595;49.578;11.012;2024-01-10T08:20:23;18.0;;;7.2;;
13057;SDS011;6595;49.578;11.012;2024-01-10T08:22:24;18.0;;;7.2;;
13057;SDS011;6595;49.578;11.012;2024-01-10T08:24:23;27.3;;;8.6;;
13057;SDS011;6595;49.578;11.012;2024-01-10T08:26:23;26.0;;;8.0;;
13057;SDS011;6595;49.578;11.012;2024-01-10T08:28:23;22.2;;;7.9;;
13057;SDS011;6595;49.578;11.012;2024-01-10T08:30:23;22.3;;;8.1;;
13057;SDS011;6595;49.578;11.012;2024-01-10T08:32:24;22.3;;;8.1;;
13057;SDS011;6595;49.578;11.012;2024-01-10T08:34:24;19.4;;;8.6;;
13057;SDS011;6595;49.578;11.012;2024-01-10T08:36:23;18.1;;;7.6;;
13057;SDS011;6595;49.578;11.012;2024-01-10T08:38:24;26.4;;;8.6;;
13057;SDS011;6595;49.578;11.012;2024-01-10T08:40:23;26.4;;;8.6;;
13057;SDS011;6595;49.578;11.012;2024-01-10T08:42:23;22.1;;;8.6;;
13057;SDS011;6595;49.578;11.012;2024-01-10T08:44:23;17.4;;;8.0;;
13057;SDS011;6595;49.578;11.012;2024-01-10T08:46:24;22.0;;;8.3;;
13057;SDS011;6595;49.578;11.012;2024-01-10T08:48:24;22.0;;;8.3;;
13057;SDS011;6595;49.578;11.012;2024-01-10T08:50:23;20.1;;;8.2;;
13057;SDS011;6595;49.578;11.012;2024-01-10T08:52:23;21.7;;;8.8;;
13057;SDS011;6595;49.578;11.012;2024-01-10T08:54:23;20.2;;;8.6;;
13057;SDS011;6595;49.578;11.012;2024-01-10T08:56:24;18.1;;;7.6;;
13057;SDS011;6595;49.578;11.012;2024-01-10T08:58:24;18.7;;;7.6;;
13057;SDS011;6595;49.578;11.012;2024-01-10T09:00:23;18.7;;;7.6;;
13057;SDS011;6595;49.578;11.012;2024-01-10T09:02:23;15.9;;;7.4;;
13057;SDS011;6595;49.578;11.012;2024-01-10T09:04:23;18.4;;;7.7;;
13057;SDS011;6595;49.578;11.012;2024-01-10T09:06:23;20.9;;;7.9;;
13057;SDS011;6595;49.578;11.012;2024-01-10T09:08:23;23.0;;;8.7;;
13057;SDS011;6595;49.578;11.012;2024-01-10T09:10:24;23.0;;;8.7;;
13057;SDS011;6595;49.578;11.012;2024-01-10T09:12:23;19.0;;;8.1;;
13057;SDS011;6595;49.578;11.012;2024-01-10T09:14:23;16.8;;;7.6;;
13057;SDS011;6595;49.578;11.012;2024-01-10T09:16:23;22.8;;;8.0;;
13057;SDS011;6595;49.578;11.012;2024-01-10T09:18:23;18.5;;;7.8;;
13057;SDS011;6595;49.578;11.012;2024-01-10T09:20:24;18.5;;;7.8;;
13057;SDS011;6595;49.578;11.012;2024-01-10T09:22:23;20.3;;;7.8;;
13057;SDS011;6595;49.578;11.012;2024-01-10T09:24:24;18.1;;;8.1;;
13057;SDS011;6595;49.578;11.012;2024-01-10T09:26:23;19.2;;;8.2;;
13057;SDS011;6595;49.578;11.012;2024-01-10T09:28:23;19.2;;;8.2;;
13057;SDS011;6595;49.578;11.012;2024-01-10T09:30:23;18.5;;;8.4;;
13057;SDS011;6595;49.578;11.012;2024-01-10T09:32:24;17.4;;;8.2;;
13057;SDS011;6595;49.578;11.012;2024-01-10T09:34:23;18.6;;;7.8;;
13057;SDS011;6595;49.578;11.012;2024-01-10T09:36:23;18.6;;;7.8;;
13057;SDS011;6595;49.578;11.012;2024-01-10T09:38:24;17.2;;;7.8;;
13057;SDS011;6595;49.578;11.012;2024-01-10T09:40:23;16.9;;;7.8;;
13057;SDS011;6595;49.578;11.012;2024-01-10T09:42:23;17.4;;;7.9;;
13057;SDS011;6595;49.578;11.012;2024-01-10T09:44:23;21.3;;;8.5;;
13057;SDS011;6595;49.578;11.012;2024-01-10T09:46:23;21.3;;;8.5;;
13057;SDS011;6595;49.578;11.012;2024-01-10T09:48:23;20.1;;;8.4;;
13057;SDS011;6595;49.578;11.012;2024-01-10T09:50:23;17.0;;;7.9;;
13057;SDS011;6595;49.578;11.012;2024-01-10T09:52:24;17.9;;;8.1;;
13057;SDS011;6595;49.578;11.012;2024-01-10T09:54:24;16.6;;;7.6;;
13057;SDS011;6595;49.578;11.012;2024-01-10T09:56:23;16.6;;;7.6;;
13057;SDS011;6595;49.578;11.012;2024-01-10T09:58:23;19.2;;;8.4;;
13057;SDS011;6595;49.578;11.012;2024-01-10T10:00:24;19.0;;;8.6;;
13057;SDS011;6595;49.578;11.012;2024-01-10T10:02:23;17.8;;;8.7;;
13057;SDS011;6595;49.578;11.012;2024-01-10T10:04:23;19.5;;;9.0;;
13057;SDS011;6595;49.578;11.012;2024-01-10T10:06:23;19.5;;;9.0;;
13057;SDS011;6595;49.578;11.012;2024-01-10T10:08:23;18.2;;;8.4;;
13057;SDS011;6595;49.578;11.012;2024-01-10T10:10:23;19.0;;;8.5;;
13057;SDS011;6595;49.578;11.012;2024-01-10T10:12:24;19.8;;;8.5;;
13057;SDS011;6595;49.578;11.012;2024-01-10T10:14:24;19.0;;;8.6;;
13057;SDS011;6595;49.578;11.012;2024-01-10T10:16:24;19.0;;;8.6;;
13057;SDS011;6595;49.578;11.012;2024-01-10T10:18:23;19.0;;;8.6;;
13057;SDS011;6595;49.578;11.012;2024-01-10T10:20:24;20.6;;;8.6;;
13057;SDS011;6595;49.578;11.012;2024-01-10T10:22:24;17.3;;;8.9;;
13057;SDS011;6595;49.578;11.012;2024-01-10T10:24:23;23.4;;;9.6;;
13057;SDS011;6595;49.578;11.012;2024-01-10T10:26:23;23.4;;;9.6;;
13057;SDS011;6595;49.578;11.012;2024-01-10T10:28:27;18.3;;;8.5;;
13057;SDS011;6595;49.578;11.012;2024-01-10T10:30:23;17.6;;;8.4;;
13057;SDS011;6595;49.578;11.012;2024-01-10T10:32:24;19.8;;;8.5;;
13057;SDS011;6595;49.578;11.012;2024-01-10T10:34:24;19.7;;;8.9;;
13057;SDS011;6595;49.578;11.012;2024-01-10T10:36:23;19.7;;;8.9;;
13057;SDS011;6595;49.578;11.012;2024-01-10T10:38:23;20.8;;;9.5;;
13057;SDS011;6595;49.578;11.012;2024-01-10T10:40:23;21.6;;;8.7;;
13057;SDS011;6595;49.578;11.012;2024-01-10T10:42:24;21.6;;;8.7;;
13057;SDS011;6595;49.578;11.012;2024-01-10T10:44:24;20.9;;;9.5;;
13057;SDS011;6595;49.578;11.012;2024-01-10T10:46:23;20.9;;;9.5;;
13057;SDS011;6595;49.578;11.012;2024-01-10T10:48:23;21.1;;;9.2;;
13057;SDS011;6595;49.578;11.012;2024-01-10T10:50:24;21.9;;;9.3;;
13057;SDS011;6595;49.578;11.012;2024-01-10T10:52:23;19.7;;;8.9;;
13057;SDS011;6595;49.578;11.012;2024-01-10T10:54:24;19.9;;;9.1;;
13057;SDS011;6595;49.578;11.012;2024-01-10T10:56:24;19.9;;;9.1;;
13057;SDS011;6595;49.578;11.012;2024-01-10T10:58:23;24.2;;;9.6;;
13057;SDS011;6595;49.578;11.012;2024-01-10T11:00:23;19.5;;;8.7;;
13057;SDS011;6595;49.578;11.012;2024-01-10T11:02:23;21.3;;;9.2;;
13057;SDS011;6595;49.578;11.012;2024-01-10T11:04:23;21.3;;;9.2;;
13057;SDS011;6595;49.578;11.012;2024-01-10T11:06:23;20.2;;;9.7;;
13057;SDS011;6595;49.578;11.012;2024-01-10T11:08:23;23.4;;;9.4;;
13057;SDS011;6595;49.578;11.012;2024-01-10T11:10:24;22.7;;;8.7;;
13057;SDS011;6595;49.578;11.012;2024-01-10T11:12:26;22.7;;;8.7;;
13057;SDS011;6595;49.578;11.012;2024-01-10T11:14:27;23.3;;;9.4;;
13057;SDS011;6595;49.578;11.012;2024-01-10T11:18:29;19.5;;;8.8;;
13057;SDS011;6595;49.578;11.012;2024-01-10T11:20:30;22.2;;;9.4;;
13057;SDS011;6595;49.578;11.012;2024-01-10T11:22:28;22.2;;;9.4;;
13057;SDS011;6595;49.578;11.012;2024-01-10T11:24:24;18.7;;;9.1;;
13057;SDS011;6595;49.578;11.012;2024-01-10T11:26:24;23.0;;;10.0;;
13057;SDS011;6595;49.578;11.012;2024-01-10T11:28:24;21.3;;;9.7;;
13057;SDS011;6595;49.578;11.012;2024-01-10T11:32:23;18.7;;;8.8;;
13057;SDS011;6595;49.578;11.012;2024-01-10T11:34:24;18.7;;;8.8;;
13057;SDS011;6595;49.578;11.012;2024-01-10T11:36:23;17.5;;;8.6;;
13057;SDS011;6595;49.578;11.012;2024-01-10T11:38:24;23.2;;;9.8;;
13057;SDS011;6595;49.578;11.012;2024-01-10T11:40:45;23.2;;;9.8;;
13057;SDS011;6595;49.578;11.012;2024-01-10T11:42:24;19.9;;;9.7;;
13057;SDS011;6595;49.578;11.012;2024-01-10T11:44:25;19.9;;;9.7;;
13057;SDS011;6595;49.578;11.012;2024-01-10T11:46:23;21.8;;;9.5;;
13057;SDS011;6595;49.578;11.012;2024-01-10T11:48:25;19.5;;;9.3;;
13057;SDS011;6595;49.578;11.012;2024-01-10T11:50:24;22.0;;;9.1;;
13057;SDS011;6595;49.578;11.012;2024-01-10T11:52:23;22.0;;;9.1;;
13057;SDS011;6595;49.578;11.012;2024-01-10T11:56:24;22.3;;;9.3;;
13057;SDS011;6595;49.578;11.012;2024-01-10T11:58:24;18.3;;;8.6;;
13057;SDS011;6595;49.578;11.012;2024-01-10T12:00:23;21.3;;;9.9;;
13057;SDS011;6595;49.578;11.012;2024-01-10T12:02:23;19.0;;;8.8;;
13057;SDS011;6595;49.578;11.012;2024-01-10T12:04:23;19.0;;;8.8;;
13057;SDS011;6595;49.578;11.012;2024-01-10T12:06:23;19.1;;;9.3;;
13057;SDS011;6595;49.578;11.012;2024-01-10T12:08:23;19.1;;;9.2;;
13057;SDS011;6595;49.578;11.012;2024-01-10T12:10:23;19.9;;;8.8;;
13057;SDS011;6595;49.578;11.012;2024-01-10T12:12:24;19.9;;;8.8;;
13057;SDS011;6595;49.578;11.012;2024-01-10T12:14:23;21.4;;;8.4;;
13057;SDS011;6595;49.578;11.012;2024-01-10T12:16:23;18.5;;;8.9;;
13057;SDS011;6595;49.578;11.012;2024-01-10T12:18:24;18.5;;;8.9;;
13057;SDS011;6595;49.578;11.012;2024-01-10T12:20:23;19.9;;;8.9;;